createdAt,value
2019-05-10T00:00:53.857Z,85.08
2019-05-10T00:03:43.633Z,85.09
2019-05-10T00:06:33.970Z,85.38
2019-05-10T00:09:05.580Z,85.65
2019-05-10T00:11:49.394Z,86.13
2019-05-10T00:14:28.991Z,85.74
2019-05-10T00:17:02.531Z,85.71
2019-05-10T00:19:34.360Z,85.79
2019-05-10T00:22:05.978Z,85.62
2019-05-10T00:24:37.520Z,85.52
2019-05-10T00:27:09.535Z,85.15
2019-05-10T00:29:41.482Z,85.28
2019-05-10T00:32:13.414Z,85.56
2019-05-10T00:34:45.080Z,85.32
2019-05-10T00:37:16.873Z,85.10
2019-05-10T00:39:48.809Z,85.20
2019-05-10T00:42:20.953Z,84.96
2019-05-10T00:44:52.868Z,84.63
2019-05-10T00:47:25.948Z,84.59
2019-05-10T00:49:57.702Z,84.92
2019-05-10T00:52:29.753Z,84.76
2019-05-10T00:55:16.666Z,84.67
2019-05-10T00:57:34.980Z,84.66
2019-05-10T01:00:08.574Z,84.65
2019-05-10T01:02:40.441Z,84.38
2019-05-10T01:05:14.147Z,84.53
2019-05-10T01:07:45.792Z,85.08
2019-05-10T01:10:17.984Z,84.91
2019-05-10T01:12:49.650Z,84.77
2019-05-10T01:15:21.823Z,84.70
2019-05-10T01:17:53.543Z,84.91
2019-05-10T01:20:26.129Z,84.89
2019-05-10T01:22:57.774Z,84.59
2019-05-10T01:25:35.373Z,84.24
2019-05-10T01:28:02.890Z,84.03
2019-05-10T01:30:34.504Z,83.66
2019-05-10T01:33:06.357Z,83.68
2019-05-10T01:35:38.170Z,82.94
2019-05-10T01:38:09.767Z,82.83
2019-05-10T01:40:41.447Z,82.71
2019-05-10T01:43:13.084Z,82.70
2019-05-10T01:45:45.054Z,82.84
2019-05-10T01:48:16.593Z,82.93
2019-05-10T01:50:48.195Z,83.12
2019-05-10T01:53:19.782Z,82.77
2019-05-10T01:55:52.962Z,82.62
2019-05-10T01:58:25.040Z,82.81
2019-05-10T02:00:57.004Z,82.32
2019-05-10T02:03:28.694Z,82.68
2019-05-10T02:06:00.308Z,82.51
2019-05-10T02:08:32.593Z,82.43
2019-05-10T02:11:04.750Z,82.65
2019-05-10T02:13:36.325Z,83.42
2019-05-10T02:16:08.467Z,83.32
2019-05-10T02:18:40.530Z,83.20
2019-05-10T02:21:12.698Z,82.92
2019-05-10T02:23:44.398Z,82.71
2019-05-10T02:26:16.210Z,82.29
2019-05-10T02:28:49.627Z,81.83
2019-05-10T02:31:22.173Z,81.46
2019-05-10T02:33:53.942Z,81.66
2019-05-10T02:36:25.587Z,82.40
2019-05-10T02:38:57.289Z,81.89
2019-05-10T02:41:29.568Z,82.15
2019-05-10T02:44:01.618Z,82.18
2019-05-10T02:46:33.582Z,81.90
2019-05-10T02:49:07.646Z,81.74
2019-05-10T02:51:39.316Z,81.69
2019-05-10T02:54:11.203Z,81.57
2019-05-10T02:56:43.859Z,81.37
2019-05-10T02:59:16.419Z,81.24
2019-05-10T03:01:48.112Z,81.01
2019-05-10T03:04:23.261Z,81.16
2019-05-10T03:06:57.975Z,80.93
2019-05-10T03:09:34.020Z,80.96
2019-05-10T03:12:26.027Z,80.95
2019-05-10T03:14:58.935Z,81.26
2019-05-10T03:17:32.447Z,81.17
2019-05-10T03:20:04.279Z,80.89
2019-05-10T03:22:39.209Z,81.13
2019-05-10T03:25:11.062Z,81.05
2019-05-10T03:27:42.795Z,80.59
2019-05-10T03:30:15.013Z,80.59
2019-05-10T03:32:46.550Z,80.79
2019-05-10T03:35:18.552Z,80.21
2019-05-10T03:37:50.917Z,80.13
2019-05-10T03:40:22.536Z,80.33
2019-05-10T03:42:54.224Z,80.24
2019-05-10T03:45:26.284Z,80.12
2019-05-10T03:47:58.282Z,80.11
2019-05-10T03:50:30.315Z,80.00
2019-05-10T03:53:02.394Z,80.48
2019-05-10T03:55:34.515Z,80.79
2019-05-10T03:58:06.415Z,80.66
2019-05-10T04:00:38.358Z,80.69
2019-05-10T04:03:10.366Z,80.80
2019-05-10T04:05:42.177Z,81.22
2019-05-10T04:08:13.744Z,80.22
2019-05-10T04:10:45.798Z,80.58
2019-05-10T04:13:17.781Z,80.78
2019-05-10T04:15:49.823Z,80.69
2019-05-10T04:18:21.555Z,79.53
2019-05-10T04:20:53.129Z,78.81
2019-05-10T04:23:25.208Z,78.89
2019-05-10T04:25:59.520Z,78.72
2019-05-10T04:28:31.155Z,78.96
2019-05-10T04:31:03.110Z,77.41
2019-05-10T04:33:35.247Z,78.07
2019-05-10T04:36:12.045Z,77.83
2019-05-10T04:38:40.181Z,76.94
2019-05-10T04:41:11.798Z,77.06
2019-05-10T04:43:43.865Z,76.74
2019-05-10T04:46:15.704Z,76.76
2019-05-10T04:48:47.969Z,76.53
2019-05-10T04:51:19.623Z,75.91
2019-05-10T04:53:51.527Z,76.10
2019-05-10T04:56:23.155Z,76.57
2019-05-10T04:58:55.001Z,76.42
2019-05-10T05:01:26.976Z,76.67
2019-05-10T05:03:58.946Z,76.86
2019-05-10T05:06:30.886Z,77.49
2019-05-10T05:09:02.786Z,75.93
2019-05-10T05:11:34.612Z,75.42
2019-05-10T05:14:09.450Z,75.30
2019-05-10T05:16:42.531Z,75.11
2019-05-10T05:19:14.419Z,75.31
2019-05-10T05:21:46.378Z,75.09
2019-05-10T05:24:23.013Z,74.64
2019-05-10T05:26:51.914Z,73.81
2019-05-10T05:29:24.158Z,73.99
2019-05-10T05:32:01.276Z,74.15
2019-05-10T05:34:29.251Z,75.33
2019-05-10T05:37:00.996Z,76.24
2019-05-10T05:39:33.096Z,75.68
2019-05-10T05:42:04.949Z,74.48
2019-05-10T05:44:36.797Z,73.97
2019-05-10T05:47:08.735Z,75.03
2019-05-10T05:49:40.901Z,76.01
2019-05-10T05:52:12.793Z,75.53
2019-05-10T05:54:44.413Z,75.94
2019-05-10T05:57:16.451Z,74.59
2019-05-10T05:59:49.172Z,74.79
2019-05-10T06:02:21.041Z,74.28
2019-05-10T06:04:53.590Z,73.42
2019-05-10T06:07:25.304Z,73.51
2019-05-10T06:09:57.163Z,74.23
2019-05-10T06:12:28.559Z,72.54
2019-05-10T06:15:00.112Z,72.24
2019-05-10T06:17:31.896Z,72.07
2019-05-10T06:20:06.102Z,71.84
2019-05-10T06:22:38.087Z,72.17
2019-05-10T06:25:11.266Z,72.42
2019-05-10T06:27:43.213Z,72.36
2019-05-10T06:30:16.930Z,72.60
2019-05-10T06:32:53.297Z,71.68
2019-05-10T06:35:21.542Z,71.82
2019-05-10T06:37:53.097Z,70.75
2019-05-10T06:40:35.836Z,70.44
2019-05-10T06:42:59.631Z,71.32
2019-05-10T06:45:31.462Z,70.54
2019-05-10T06:48:03.340Z,69.50
2019-05-10T06:50:34.961Z,69.21
2019-05-10T06:53:10.514Z,69.58
2019-05-10T06:55:40.003Z,68.66
2019-05-10T06:58:11.857Z,68.13
2019-05-10T07:00:45.566Z,67.26
2019-05-10T07:03:16.711Z,69.50
2019-05-10T07:05:48.155Z,67.37
2019-05-10T07:08:20.645Z,67.79
2019-05-10T07:10:52.245Z,66.59
2019-05-10T07:13:23.767Z,65.05
2019-05-10T07:15:55.496Z,65.96
2019-05-10T07:18:27.454Z,67.00
2019-05-10T07:21:00.898Z,65.05
2019-05-10T07:23:32.505Z,64.94
2019-05-10T07:26:04.199Z,64.64
2019-05-10T07:28:35.748Z,64.69
2019-05-10T07:31:07.473Z,63.96
2019-05-10T07:33:40.230Z,64.72
2019-05-10T07:36:15.185Z,62.35
2019-05-10T07:38:45.694Z,63.35
2019-05-10T07:41:19.731Z,63.35
2019-05-10T07:43:50.916Z,62.30
2019-05-10T07:46:22.559Z,60.88
2019-05-10T07:48:54.118Z,60.90
2019-05-10T07:51:28.830Z,60.69
2019-05-10T07:54:04.673Z,60.92
2019-05-10T07:56:33.304Z,60.80
2019-05-10T07:59:05.423Z,63.81
2019-05-10T08:01:37.477Z,61.24
2019-05-10T08:04:12.628Z,61.10
2019-05-10T08:06:47.436Z,61.78
2019-05-10T08:09:16.257Z,62.26
2019-05-10T08:11:48.598Z,63.52
2019-05-10T08:14:20.555Z,63.31
2019-05-10T08:16:58.556Z,59.80
2019-05-10T08:19:25.617Z,60.08
2019-05-10T08:22:01.754Z,60.61
2019-05-10T08:24:35.140Z,58.41
2019-05-10T08:27:11.332Z,57.29
2019-05-10T08:29:36.857Z,60.49
2019-05-10T08:32:08.801Z,57.36
2019-05-10T08:34:51.733Z,53.85
2019-05-10T08:37:19.455Z,54.96
2019-05-10T08:39:50.298Z,57.01
2019-05-10T08:42:37.812Z,58.38
2019-05-10T08:45:04.132Z,56.99
2019-05-10T08:47:28.285Z,55.23
2019-05-10T08:50:17.930Z,57.17
2019-05-10T08:52:34.353Z,55.60
2019-05-10T08:55:07.985Z,58.20
2019-05-10T08:57:44.288Z,57.97
2019-05-10T09:00:13.386Z,57.99
2019-05-10T09:02:44.902Z,57.74
2019-05-10T09:05:22.649Z,56.46
2019-05-10T09:07:52.081Z,56.25
2019-05-10T09:10:23.939Z,57.06
2019-05-10T09:12:58.139Z,58.29
2019-05-10T09:15:28.996Z,57.23
2019-05-10T09:18:04.155Z,56.60
2019-05-10T09:20:34.513Z,57.81
2019-05-10T09:23:08.619Z,57.42
2019-05-10T09:25:39.387Z,57.09
2019-05-10T09:28:16.534Z,57.72
2019-05-10T09:30:56.573Z,55.87
2019-05-10T09:33:18.111Z,55.67
2019-05-10T09:35:54.697Z,56.45
2019-05-10T09:38:23.378Z,56.85
2019-05-10T09:40:56.257Z,56.12
2019-05-10T09:43:28.590Z,56.87
2019-05-10T09:46:02.527Z,57.71
2019-05-10T09:48:33.417Z,58.39
2019-05-10T09:51:05.249Z,58.30
2019-05-10T09:53:38.353Z,58.66
2019-05-10T09:56:10.110Z,58.66
2019-05-10T09:58:41.934Z,58.77
2019-05-10T10:01:19.085Z,57.73
2019-05-10T10:03:47.793Z,58.18
2019-05-10T10:06:20.070Z,59.10
2019-05-10T10:08:53.255Z,60.15
2019-05-10T10:11:27.640Z,61.21
2019-05-10T10:14:01.887Z,60.28
2019-05-10T10:16:32.133Z,61.92
2019-05-10T10:19:04.092Z,59.68
2019-05-10T10:21:38.984Z,60.96
2019-05-10T10:24:15.803Z,61.07
2019-05-10T10:26:42.530Z,60.51
2019-05-10T10:29:14.080Z,59.68
2019-05-10T10:31:54.656Z,60.53
2019-05-10T10:34:19.357Z,60.88
2019-05-10T10:36:51.011Z,60.18
2019-05-10T10:39:23.168Z,60.66
2019-05-10T10:41:57.156Z,60.98
2019-05-10T10:44:28.919Z,58.05
2019-05-10T10:47:00.682Z,59.02
2019-05-10T10:49:51.170Z,59.73
2019-05-10T10:52:23.031Z,60.16
2019-05-10T10:54:54.824Z,57.36
2019-05-10T10:57:39.246Z,55.45
2019-05-10T11:00:38.862Z,54.11
2019-05-10T11:03:09.817Z,55.01
2019-05-10T11:05:41.372Z,54.91
2019-05-10T11:08:14.298Z,53.79
2019-05-10T11:10:46.209Z,52.67
2019-05-10T11:13:23.716Z,54.65
2019-05-10T11:15:51.868Z,54.56
2019-05-10T11:18:23.437Z,54.35
2019-05-10T11:20:55.063Z,53.93
2019-05-10T11:23:34.101Z,54.90
2019-05-10T11:26:01.321Z,54.63
2019-05-10T11:28:38.620Z,55.07
2019-05-10T11:31:06.146Z,55.19
2019-05-10T11:33:37.747Z,53.51
2019-05-10T11:36:11.420Z,50.99
2019-05-10T11:38:47.037Z,53.62
2019-05-10T11:41:22.136Z,54.16
2019-05-10T11:43:49.692Z,53.96
2019-05-10T11:46:21.362Z,53.47
2019-05-10T11:48:53.225Z,52.59
2019-05-10T11:51:25.173Z,52.40
2019-05-10T11:53:59.648Z,49.56
2019-05-10T11:56:32.368Z,49.19
2019-05-10T11:59:05.430Z,49.18
2019-05-10T12:01:41.835Z,50.08
2019-05-10T12:04:24.035Z,47.22
2019-05-10T12:06:50.201Z,47.79
2019-05-10T12:09:24.522Z,49.07
2019-05-10T12:11:57.051Z,49.36
2019-05-10T12:14:28.849Z,48.28
2019-05-10T12:17:05.619Z,48.74
2019-05-10T12:19:44.478Z,48.22
2019-05-10T12:22:07.139Z,50.48
2019-05-10T12:24:57.109Z,51.17
2019-05-10T12:27:24.506Z,50.26
2019-05-10T12:29:46.579Z,49.66
2019-05-10T12:32:21.236Z,50.62
2019-05-10T12:34:56.518Z,50.97
2019-05-10T12:37:25.344Z,51.15
2019-05-10T12:40:06.182Z,51.85
2019-05-10T12:42:31.789Z,51.76
2019-05-10T12:45:04.421Z,50.71
2019-05-10T12:47:36.320Z,50.94
2019-05-10T12:50:08.914Z,52.17
2019-05-10T12:52:43.286Z,52.36
2019-05-10T12:55:13.761Z,52.91
2019-05-10T12:57:45.789Z,53.12
2019-05-10T13:00:17.734Z,53.29
2019-05-10T13:02:52.827Z,52.53
2019-05-10T13:05:30.643Z,52.90
2019-05-10T13:07:56.697Z,53.09
2019-05-10T13:10:28.734Z,51.30
2019-05-10T13:13:00.353Z,52.13
2019-05-10T13:15:33.499Z,55.31
2019-05-10T13:18:05.176Z,57.24
2019-05-10T13:20:38.661Z,58.04
2019-05-10T13:23:15.987Z,57.39
2019-05-10T13:25:44.528Z,56.84
2019-05-10T13:28:16.433Z,58.16
2019-05-10T13:30:47.935Z,58.54
2019-05-10T13:33:28.457Z,58.72
2019-05-10T13:35:56.530Z,59.29
2019-05-10T13:38:26.830Z,58.98
2019-05-10T13:40:58.975Z,58.98
2019-05-10T13:43:30.857Z,59.48
2019-05-10T13:46:02.490Z,58.20
2019-05-10T13:48:34.338Z,58.65
2019-05-10T13:51:06.195Z,57.32
2019-05-10T13:53:37.771Z,57.37
2019-05-10T13:56:09.612Z,57.96
2019-05-10T13:58:41.777Z,56.98
2019-05-10T14:01:14.864Z,55.73
2019-05-10T14:03:53.965Z,56.25
2019-05-10T14:06:20.638Z,56.76
2019-05-10T14:08:52.217Z,57.00
2019-05-10T14:11:25.632Z,57.44
2019-05-10T14:13:57.259Z,55.67
2019-05-10T14:16:28.756Z,55.55
2019-05-10T14:19:00.237Z,55.78
2019-05-10T14:21:31.767Z,56.22
2019-05-10T14:24:03.098Z,54.45
2019-05-10T14:26:34.535Z,54.55
2019-05-10T14:29:05.959Z,54.41
2019-05-10T14:31:37.304Z,55.33
2019-05-10T14:34:16.084Z,53.88
2019-05-10T14:36:43.508Z,53.35
2019-05-10T14:39:15.004Z,52.60
2019-05-10T14:41:50.817Z,51.59
2019-05-10T14:44:20.165Z,51.41
2019-05-10T14:46:51.838Z,51.76
2019-05-10T14:49:23.681Z,52.93
2019-05-10T14:51:59.708Z,54.77
2019-05-10T14:54:42.530Z,55.70
2019-05-10T14:57:01.948Z,55.30
2019-05-10T14:59:34.071Z,55.52
2019-05-10T15:02:05.953Z,55.50
2019-05-10T15:04:46.918Z,55.36
2019-05-10T15:07:14.466Z,55.61
2019-05-10T15:09:44.627Z,56.29
2019-05-10T15:12:22.275Z,55.64
2019-05-10T15:14:49.865Z,55.46
2019-05-10T15:17:21.281Z,55.33
2019-05-10T15:19:57.607Z,55.03
2019-05-10T15:22:26.370Z,55.08
2019-05-10T15:24:58.013Z,55.10
2019-05-10T15:27:29.495Z,55.28
2019-05-10T15:30:05.368Z,55.05
2019-05-10T15:32:35.127Z,54.06
2019-05-10T15:35:08.662Z,54.07
2019-05-10T15:37:45.763Z,53.77
2019-05-10T15:40:14.825Z,53.41
2019-05-10T15:42:46.423Z,52.65
2019-05-10T15:45:19.459Z,51.60
2019-05-10T15:47:52.327Z,52.26
2019-05-10T15:50:24.515Z,52.64
2019-05-10T15:52:56.475Z,52.94
2019-05-10T15:55:28.992Z,52.50
2019-05-10T15:58:00.697Z,51.98
2019-05-10T16:00:39.202Z,51.08
2019-05-10T16:03:06.157Z,51.00
2019-05-10T16:05:43.396Z,51.58
2019-05-10T16:08:13.663Z,51.92
2019-05-10T16:10:44.592Z,51.73
2019-05-10T16:13:23.245Z,51.38
2019-05-10T16:15:51.747Z,51.66
2019-05-10T16:18:23.218Z,51.76
2019-05-10T16:20:54.962Z,51.85
2019-05-10T16:23:26.471Z,52.23
2019-05-10T16:25:58.216Z,52.14
2019-05-10T16:28:30.170Z,51.76
2019-05-10T16:31:01.964Z,51.66
2019-05-10T16:33:33.821Z,52.00
2019-05-10T16:36:08.313Z,51.15
2019-05-10T16:38:39.248Z,51.52
2019-05-10T16:41:10.933Z,51.99
2019-05-10T16:43:43.691Z,53.58
2019-05-10T16:46:15.575Z,54.42
2019-05-10T16:48:47.094Z,53.87
2019-05-10T16:51:18.888Z,54.87
2019-05-10T16:53:50.569Z,55.31
2019-05-10T16:56:22.494Z,55.20
2019-05-10T16:58:55.122Z,55.74
2019-05-10T17:01:27.776Z,56.82
2019-05-10T17:04:01.520Z,57.25
2019-05-10T17:06:35.550Z,57.31
2019-05-10T17:09:09.479Z,57.75
2019-05-10T17:11:41.487Z,58.03
2019-05-10T17:14:17.778Z,58.63
2019-05-10T17:16:49.551Z,59.50
2019-05-10T17:19:20.783Z,59.51
2019-05-10T17:21:52.420Z,59.71
2019-05-10T17:24:25.417Z,60.31
2019-05-10T17:26:57.184Z,60.09
2019-05-10T17:29:28.979Z,61.14
2019-05-10T17:32:00.936Z,60.97
2019-05-10T17:34:32.410Z,60.81
2019-05-10T17:37:04.736Z,60.91
2019-05-10T17:39:36.520Z,60.76
2019-05-10T17:42:08.356Z,61.16
2019-05-10T17:44:43.514Z,61.90
2019-05-10T17:47:13.603Z,62.37
2019-05-10T17:49:45.478Z,62.73
2019-05-10T17:52:17.502Z,63.28
2019-05-10T17:54:50.386Z,63.41
2019-05-10T17:57:24.299Z,63.54
2019-05-10T17:59:55.832Z,64.25
2019-05-10T18:02:30.366Z,64.50
2019-05-10T18:05:06.754Z,64.39
2019-05-10T18:07:35.351Z,64.32
2019-05-10T18:10:07.656Z,64.47
2019-05-10T18:12:40.620Z,64.52
2019-05-10T18:15:12.727Z,65.08
2019-05-10T18:17:44.308Z,65.41
2019-05-10T18:20:16.172Z,65.88
2019-05-10T18:22:48.494Z,65.96
2019-05-10T18:25:22.398Z,66.35
2019-05-10T18:27:53.756Z,66.20
2019-05-10T18:30:25.696Z,66.16
2019-05-10T18:32:57.600Z,66.19
2019-05-10T18:35:29.039Z,66.34
2019-05-10T18:38:00.985Z,66.06
2019-05-10T18:40:35.305Z,66.33
2019-05-10T18:43:07.212Z,66.48
2019-05-10T18:45:40.523Z,66.76
2019-05-10T18:48:12.088Z,67.18
2019-05-10T18:50:45.229Z,66.88
2019-05-10T18:53:16.926Z,67.70
2019-05-10T18:55:48.580Z,67.14
2019-05-10T18:58:23.321Z,67.59
2019-05-10T19:00:56.115Z,68.12
2019-05-10T19:03:33.431Z,67.96
2019-05-10T19:06:04.176Z,67.82
2019-05-10T19:08:35.231Z,67.96
2019-05-10T19:11:07.206Z,68.02
2019-05-10T19:13:46.759Z,67.88
2019-05-10T19:16:12.651Z,68.02
2019-05-10T19:18:44.424Z,67.79
2019-05-10T19:21:16.267Z,67.85
2019-05-10T19:23:52.319Z,67.44
2019-05-10T19:26:23.845Z,67.41
2019-05-10T19:28:59.042Z,67.28
2019-05-10T19:31:37.255Z,67.54
2019-05-10T19:34:02.142Z,67.41
2019-05-10T19:36:33.914Z,67.18
2019-05-10T19:39:07.268Z,67.28
2019-05-10T19:41:38.650Z,66.86
2019-05-10T19:44:10.273Z,66.86
2019-05-10T19:46:42.948Z,67.10
2019-05-10T19:49:15.600Z,66.95
2019-05-10T19:51:50.280Z,67.14
2019-05-10T19:54:21.397Z,67.04
2019-05-10T19:56:55.492Z,67.20
2019-05-10T19:59:27.288Z,67.60
2019-05-10T20:01:58.830Z,67.82
2019-05-10T20:04:30.579Z,67.80
2019-05-10T20:07:02.240Z,67.81
2019-05-10T20:09:34.090Z,68.31
2019-05-10T20:12:05.560Z,68.72
2019-05-10T20:14:37.239Z,68.88
2019-05-10T20:17:09.091Z,69.16
2019-05-10T20:19:40.812Z,68.78
2019-05-10T20:22:12.738Z,68.93
2019-05-10T20:24:44.495Z,68.88
2019-05-10T20:27:16.177Z,68.59
2019-05-10T20:29:48.456Z,67.76
2019-05-10T20:32:20.319Z,67.91
2019-05-10T20:34:51.878Z,67.58
2019-05-10T20:37:23.732Z,67.91
2019-05-10T20:39:55.589Z,67.94
2019-05-10T20:42:27.323Z,68.03
2019-05-10T20:45:07.634Z,68.13
2019-05-10T20:47:32.805Z,68.29
2019-05-10T20:50:05.179Z,67.95
2019-05-10T20:52:37.061Z,67.97
2019-05-10T20:55:08.851Z,68.22
2019-05-10T20:57:41.271Z,67.76
2019-05-10T21:00:13.237Z,68.02
2019-05-10T21:02:44.899Z,68.37
2019-05-10T21:05:16.905Z,68.52
2019-05-10T21:07:48.623Z,68.57
2019-05-10T21:10:20.361Z,68.57
2019-05-10T21:12:52.232Z,68.34
2019-05-10T21:15:23.718Z,68.35
2019-05-10T21:17:55.354Z,68.11
2019-05-10T21:20:27.112Z,67.79
2019-05-10T21:22:58.745Z,67.71
2019-05-10T21:25:30.472Z,68.72
2019-05-10T21:28:01.852Z,68.00
2019-05-10T21:30:33.518Z,67.83
2019-05-10T21:33:05.529Z,67.61
2019-05-10T21:35:37.116Z,67.74
2019-05-10T21:38:08.783Z,67.86
2019-05-10T21:40:40.449Z,68.03
2019-05-10T21:43:12.098Z,67.90
2019-05-10T21:45:43.763Z,67.91
2019-05-10T21:48:15.292Z,68.31
2019-05-10T21:50:47.228Z,68.61
2019-05-10T21:53:18.909Z,68.12
2019-05-10T21:55:50.601Z,68.37
2019-05-10T21:58:22.322Z,68.52
2019-05-10T22:00:54.299Z,68.33
2019-05-10T22:03:27.614Z,68.12
2019-05-10T22:05:59.463Z,68.26
2019-05-10T22:08:30.901Z,68.67
2019-05-10T22:11:02.714Z,68.11
2019-05-10T22:13:34.301Z,68.30
2019-05-10T22:16:05.864Z,68.57
2019-05-10T22:18:38.430Z,68.44
2019-05-10T22:21:09.823Z,68.84
2019-05-10T22:23:41.845Z,68.81
2019-05-10T22:26:13.623Z,69.00
2019-05-10T22:28:45.357Z,69.55
2019-05-10T22:31:17.060Z,70.16
2019-05-10T22:33:48.771Z,69.15
2019-05-10T22:36:20.347Z,68.85
2019-05-10T22:39:05.834Z,68.80
2019-05-10T22:41:24.895Z,68.78
2019-05-10T22:43:56.724Z,68.55
2019-05-10T22:46:28.646Z,68.52
2019-05-10T22:49:01.193Z,68.82
2019-05-10T22:51:33.053Z,68.61
2019-05-10T22:54:04.957Z,68.78
2019-05-10T22:56:36.896Z,68.62
2019-05-10T22:59:08.537Z,68.42
2019-05-10T23:01:40.375Z,68.41
2019-05-10T23:04:13.442Z,68.48
2019-05-10T23:06:45.216Z,68.78
2019-05-10T23:09:24.667Z,68.68
2019-05-10T23:11:50.575Z,68.77
2019-05-10T23:14:22.326Z,68.59
2019-05-10T23:16:54.139Z,68.74
2019-05-10T23:19:25.684Z,68.74
2019-05-10T23:21:57.382Z,68.83
2019-05-10T23:24:39.272Z,68.96
2019-05-10T23:27:11.858Z,68.76
2019-05-10T23:29:43.397Z,68.98
2019-05-10T23:32:15.279Z,69.06
2019-05-10T23:34:46.929Z,68.92
2019-05-10T23:37:18.777Z,68.90
2019-05-10T23:39:50.635Z,69.03
2019-05-10T23:42:22.151Z,69.26
2019-05-10T23:44:53.957Z,69.22
2019-05-10T23:47:25.719Z,69.18
2019-05-10T23:49:57.547Z,69.21
2019-05-10T23:52:29.433Z,68.94
2019-05-10T23:55:02.612Z,69.01
2019-05-10T23:57:34.614Z,68.91
